JNA311 RKTU-RKPC
Flight info
| Callsign | JNA311 |
|---|---|
| Flight time | 0h 38m |
| Altitude | 26000 |
| Route | UPTIL1 BULTI Y711 DOTOL DOTOL2M |
| Aircraft | B738/M-SDE2E3FGHIRWXY/LB1 |
Departure
| Time | 2026-05-01 09:04 |
|---|---|
| Airport | Cheongju International Airport/Cheongju Air Base (K-59/G-513) (RKTU) |
Arrival
| Time | 2026-05-01 09:43 |
|---|---|
| Airport | Jeju International Airport (RKPC) |
| Time | Latitude | Longitude | Altitude | Speed | Heading |
|---|---|---|---|---|---|
| 2026-05-01 08:37 | 36.72099 | 127.49674 | 188 ft | 0 kts | 321° |
| 2026-05-01 08:52 | 36.72098 | 127.49675 | 188 ft | 2 kts | 321° |
| 2026-05-01 08:52 | 36.72076 | 127.49697 | 202 ft | 3 kts | 321° |
| 2026-05-01 08:52 | 36.72055 | 127.49713 | 204 ft | 4 kts | 346° |
| 2026-05-01 08:52 | 36.72032 | 127.49711 | 196 ft | 4 kts | 39° |
| 2026-05-01 08:53 | 36.72026 | 127.49704 | 195 ft | 0 kts | 51° |
| 2026-05-01 08:58 | 36.72028 | 127.49707 | 205 ft | 2 kts | 51° |
| 2026-05-01 08:58 | 36.72055 | 127.49750 | 193 ft | 10 kts | 52° |
| 2026-05-01 08:58 | 36.72105 | 127.49831 | 188 ft | 13 kts | 51° |
| 2026-05-01 08:58 | 36.72170 | 127.49932 | 188 ft | 16 kts | 51° |
| 2026-05-01 08:59 | 36.72240 | 127.50045 | 195 ft | 17 kts | 52° |
| 2026-05-01 08:59 | 36.72306 | 127.50149 | 204 ft | 10 kts | 52° |
| 2026-05-01 08:59 | 36.72309 | 127.50227 | 187 ft | 10 kts | 126° |
| 2026-05-01 08:59 | 36.72261 | 127.50285 | 193 ft | 10 kts | 140° |
| 2026-05-01 09:00 | 36.72228 | 127.50352 | 192 ft | 10 kts | 82° |
| 2026-05-01 09:00 | 36.72271 | 127.50428 | 182 ft | 12 kts | 49° |
| 2026-05-01 09:00 | 36.72326 | 127.50512 | 180 ft | 13 kts | 51° |
| 2026-05-01 09:00 | 36.72382 | 127.50599 | 180 ft | 13 kts | 51° |
| 2026-05-01 09:01 | 36.72437 | 127.50684 | 180 ft | 12 kts | 51° |
| 2026-05-01 09:01 | 36.72490 | 127.50767 | 181 ft | 12 kts | 51° |
| 2026-05-01 09:01 | 36.72541 | 127.50849 | 181 ft | 12 kts | 58° |
| 2026-05-01 09:01 | 36.72555 | 127.50937 | 182 ft | 0 kts | 92° |
| 2026-05-01 09:02 | 36.72555 | 127.50942 | 182 ft | 3 kts | 92° |
| 2026-05-01 09:02 | 36.72554 | 127.50999 | 182 ft | 8 kts | 93° |
| 2026-05-01 09:03 | 36.72535 | 127.51060 | 182 ft | 8 kts | 134° |
| 2026-05-01 09:03 | 36.72487 | 127.51069 | 182 ft | 7 kts | 202° |
| 2026-05-01 09:03 | 36.72452 | 127.51024 | 181 ft | 7 kts | 231° |
| 2026-05-01 09:03 | 36.72369 | 127.50896 | 179 ft | 44 kts | 231° |
| 2026-05-01 09:04 | 36.72024 | 127.50345 | 181 ft | 114 kts | 232° |
| 2026-05-01 09:04 | 36.71419 | 127.49367 | 255 ft | 164 kts | 236° |
| 2026-05-01 09:04 | 36.70714 | 127.48232 | 1028 ft | 165 kts | 237° |
| 2026-05-01 09:04 | 36.69990 | 127.47227 | 2122 ft | 149 kts | 231° |
| 2026-05-01 09:05 | 36.69235 | 127.46308 | 2733 ft | 166 kts | 231° |
| 2026-05-01 09:05 | 36.68331 | 127.45191 | 3041 ft | 199 kts | 231° |
| 2026-05-01 09:05 | 36.67290 | 127.43878 | 3247 ft | 226 kts | 231° |
| 2026-05-01 09:05 | 36.66158 | 127.42427 | 3612 ft | 243 kts | 231° |
| 2026-05-01 09:06 | 36.64928 | 127.40833 | 3917 ft | 264 kts | 231° |
| 2026-05-01 09:06 | 36.63630 | 127.39142 | 4684 ft | 272 kts | 231° |
| 2026-05-01 09:06 | 36.62328 | 127.37432 | 5608 ft | 272 kts | 231° |
| 2026-05-01 09:06 | 36.61029 | 127.35718 | 6455 ft | 275 kts | 231° |
| 2026-05-01 09:07 | 36.59709 | 127.33974 | 6894 ft | 278 kts | 231° |
| 2026-05-01 09:07 | 36.58359 | 127.32192 | 7535 ft | 287 kts | 231° |
| 2026-05-01 09:07 | 36.56977 | 127.30373 | 8284 ft | 292 kts | 231° |
| 2026-05-01 09:07 | 36.55578 | 127.28544 | 9003 ft | 298 kts | 232° |
| 2026-05-01 09:08 | 36.54126 | 127.26661 | 9724 ft | 305 kts | 231° |
| 2026-05-01 09:08 | 36.52636 | 127.24740 | 10341 ft | 314 kts | 231° |
| 2026-05-01 09:08 | 36.51119 | 127.22657 | 10511 ft | 334 kts | 242° |
| 2026-05-01 09:08 | 36.50087 | 127.20024 | 10742 ft | 346 kts | 255° |
| 2026-05-01 09:09 | 36.49300 | 127.17161 | 11236 ft | 354 kts | 257° |
| 2026-05-01 09:09 | 36.48514 | 127.14236 | 11966 ft | 357 kts | 257° |
| 2026-05-01 09:09 | 36.47676 | 127.11327 | 12770 ft | 359 kts | 256° |
| 2026-05-01 09:09 | 36.46780 | 127.08410 | 13532 ft | 363 kts | 255° |
| 2026-05-01 09:10 | 36.45840 | 127.05483 | 13964 ft | 366 kts | 254° |
| 2026-05-01 09:10 | 36.44872 | 127.02549 | 14002 ft | 367 kts | 254° |
| 2026-05-01 09:10 | 36.43905 | 126.99647 | 14022 ft | 369 kts | 253° |
| 2026-05-01 09:10 | 36.42921 | 126.96707 | 14026 ft | 368 kts | 253° |
| 2026-05-01 09:11 | 36.41940 | 126.93778 | 14022 ft | 367 kts | 253° |
| 2026-05-01 09:11 | 36.40963 | 126.90860 | 14038 ft | 366 kts | 253° |
| 2026-05-01 09:11 | 36.39960 | 126.87948 | 14065 ft | 372 kts | 249° |
| 2026-05-01 09:11 | 36.38323 | 126.85365 | 14593 ft | 392 kts | 225° |
| 2026-05-01 09:12 | 36.35954 | 126.83646 | 15511 ft | 402 kts | 203° |
| 2026-05-01 09:12 | 36.33187 | 126.83003 | 16356 ft | 408 kts | 188° |
| 2026-05-01 09:12 | 36.30334 | 126.82721 | 17055 ft | 413 kts | 187° |
| 2026-05-01 09:12 | 36.27447 | 126.82477 | 17692 ft | 419 kts | 187° |
| 2026-05-01 09:13 | 36.24567 | 126.82218 | 18344 ft | 422 kts | 188° |
| 2026-05-01 09:13 | 36.21629 | 126.81922 | 18943 ft | 425 kts | 189° |
| 2026-05-01 09:13 | 36.18669 | 126.81600 | 19521 ft | 429 kts | 190° |
| 2026-05-01 09:13 | 36.15687 | 126.81268 | 20087 ft | 433 kts | 190° |
| 2026-05-01 09:14 | 36.12675 | 126.80933 | 20639 ft | 437 kts | 191° |
| 2026-05-01 09:14 | 36.09633 | 126.80598 | 21146 ft | 441 kts | 191° |
| 2026-05-01 09:14 | 36.06562 | 126.80263 | 21689 ft | 445 kts | 191° |
| 2026-05-01 09:14 | 36.03469 | 126.79927 | 22208 ft | 448 kts | 191° |
| 2026-05-01 09:15 | 36.00347 | 126.79587 | 22694 ft | 452 kts | 191° |
| 2026-05-01 09:15 | 35.97195 | 126.79246 | 23181 ft | 457 kts | 192° |
| 2026-05-01 09:15 | 35.94055 | 126.78905 | 23622 ft | 461 kts | 192° |
| 2026-05-01 09:15 | 35.90850 | 126.78557 | 24018 ft | 464 kts | 192° |
| 2026-05-01 09:16 | 35.87627 | 126.78208 | 24434 ft | 466 kts | 192° |
| 2026-05-01 09:16 | 35.84385 | 126.77857 | 24871 ft | 468 kts | 193° |
| 2026-05-01 09:16 | 35.81135 | 126.77507 | 25304 ft | 470 kts | 193° |
| 2026-05-01 09:17 | 35.74595 | 126.76803 | 25947 ft | 476 kts | 193° |
| 2026-05-01 09:17 | 35.71271 | 126.76442 | 25941 ft | 481 kts | 193° |
| 2026-05-01 09:17 | 35.64627 | 126.75734 | 25944 ft | 477 kts | 193° |
| 2026-05-01 09:18 | 35.61320 | 126.75382 | 25946 ft | 477 kts | 193° |
| 2026-05-01 09:18 | 35.54701 | 126.74671 | 25950 ft | 477 kts | 193° |
| 2026-05-01 09:19 | 35.48124 | 126.73968 | 25949 ft | 478 kts | 193° |
| 2026-05-01 09:19 | 35.44819 | 126.73617 | 25954 ft | 478 kts | 193° |
| 2026-05-01 09:19 | 35.41506 | 126.73266 | 25945 ft | 478 kts | 193° |
| 2026-05-01 09:20 | 35.34890 | 126.72566 | 25944 ft | 476 kts | 193° |
| 2026-05-01 09:20 | 35.28297 | 126.71868 | 25946 ft | 475 kts | 193° |
| 2026-05-01 09:21 | 35.21721 | 126.71174 | 25948 ft | 473 kts | 193° |
| 2026-05-01 09:21 | 35.18446 | 126.70828 | 25947 ft | 473 kts | 193° |
| 2026-05-01 09:21 | 35.11976 | 126.70149 | 25928 ft | 461 kts | 193° |
| 2026-05-01 09:22 | 35.05669 | 126.69492 | 25949 ft | 452 kts | 193° |
| 2026-05-01 09:22 | 34.99430 | 126.68827 | 25944 ft | 448 kts | 193° |
| 2026-05-01 09:23 | 34.96337 | 126.68499 | 25941 ft | 443 kts | 193° |
| 2026-05-01 09:23 | 34.90406 | 126.67889 | 25932 ft | 412 kts | 194° |
| 2026-05-01 09:24 | 34.84886 | 126.67320 | 25922 ft | 384 kts | 195° |
| 2026-05-01 09:24 | 34.82305 | 126.67050 | 25776 ft | 372 kts | 195° |
| 2026-05-01 09:24 | 34.77237 | 126.66506 | 25018 ft | 363 kts | 195° |
| 2026-05-01 09:25 | 34.72183 | 126.65954 | 23783 ft | 372 kts | 194° |
| 2026-05-01 09:25 | 34.66760 | 126.65352 | 21196 ft | 409 kts | 192° |
| 2026-05-01 09:26 | 34.63888 | 126.65050 | 20166 ft | 417 kts | 191° |
| 2026-05-01 09:26 | 34.58161 | 126.64471 | 18909 ft | 407 kts | 190° |
| 2026-05-01 09:26 | 34.55362 | 126.64186 | 18357 ft | 401 kts | 189° |
| 2026-05-01 09:27 | 34.49896 | 126.63619 | 17265 ft | 387 kts | 189° |
| 2026-05-01 09:27 | 34.47269 | 126.63344 | 16801 ft | 380 kts | 189° |
| 2026-05-01 09:27 | 34.44641 | 126.63068 | 16347 ft | 379 kts | 189° |
| 2026-05-01 09:28 | 34.42014 | 126.62793 | 16020 ft | 376 kts | 189° |
| 2026-05-01 09:28 | 34.39413 | 126.62515 | 15980 ft | 375 kts | 189° |
| 2026-05-01 09:28 | 34.36763 | 126.62225 | 15340 ft | 388 kts | 189° |
| 2026-05-01 09:28 | 34.34080 | 126.61934 | 15116 ft | 384 kts | 189° |
| 2026-05-01 09:29 | 34.28741 | 126.61359 | 14732 ft | 387 kts | 189° |
| 2026-05-01 09:29 | 34.26060 | 126.61071 | 14491 ft | 386 kts | 188° |
| 2026-05-01 09:30 | 34.20839 | 126.60563 | 13784 ft | 380 kts | 171° |
| 2026-05-01 09:30 | 34.18290 | 126.61360 | 13025 ft | 378 kts | 166° |
| 2026-05-01 09:30 | 34.13258 | 126.62923 | 12035 ft | 360 kts | 167° |
| 2026-05-01 09:31 | 34.10872 | 126.63613 | 11722 ft | 348 kts | 167° |
| 2026-05-01 09:31 | 34.08536 | 126.64270 | 11216 ft | 343 kts | 167° |
| 2026-05-01 09:31 | 34.04030 | 126.65507 | 10639 ft | 322 kts | 167° |
| 2026-05-01 09:32 | 34.01879 | 126.66093 | 10362 ft | 313 kts | 167° |
| 2026-05-01 09:32 | 33.97686 | 126.67231 | 9560 ft | 306 kts | 166° |
| 2026-05-01 09:32 | 33.95617 | 126.67793 | 9116 ft | 304 kts | 167° |
| 2026-05-01 09:33 | 33.93565 | 126.68350 | 8685 ft | 301 kts | 167° |
| 2026-05-01 09:33 | 33.91529 | 126.68902 | 8291 ft | 297 kts | 167° |
| 2026-05-01 09:33 | 33.87534 | 126.69983 | 7674 ft | 293 kts | 167° |
| 2026-05-01 09:34 | 33.85573 | 126.70514 | 7379 ft | 293 kts | 167° |
| 2026-05-01 09:34 | 33.83590 | 126.71051 | 7080 ft | 292 kts | 167° |
| 2026-05-01 09:34 | 33.79640 | 126.72118 | 6466 ft | 290 kts | 167° |
| 2026-05-01 09:35 | 33.77678 | 126.72648 | 6138 ft | 288 kts | 167° |
| 2026-05-01 09:35 | 33.73832 | 126.73687 | 5537 ft | 276 kts | 167° |
| 2026-05-01 09:35 | 33.71981 | 126.74186 | 5256 ft | 269 kts | 167° |
| 2026-05-01 09:36 | 33.70174 | 126.74673 | 4991 ft | 263 kts | 167° |
| 2026-05-01 09:36 | 33.68437 | 126.75141 | 4727 ft | 257 kts | 168° |
| 2026-05-01 09:36 | 33.66708 | 126.75541 | 4443 ft | 249 kts | 180° |
| 2026-05-01 09:36 | 33.65100 | 126.75108 | 4248 ft | 228 kts | 213° |
| 2026-05-01 09:37 | 33.63923 | 126.73974 | 4006 ft | 209 kts | 236° |
| 2026-05-01 09:37 | 33.62430 | 126.71209 | 3598 ft | 191 kts | 245° |
| 2026-05-01 09:37 | 33.61758 | 126.69875 | 3428 ft | 182 kts | 245° |
| 2026-05-01 09:38 | 33.60500 | 126.67391 | 3064 ft | 172 kts | 245° |
| 2026-05-01 09:38 | 33.59893 | 126.66187 | 2880 ft | 170 kts | 245° |
| 2026-05-01 09:38 | 33.59280 | 126.64973 | 2713 ft | 170 kts | 245° |
| 2026-05-01 09:39 | 33.58055 | 126.62578 | 2370 ft | 169 kts | 245° |
| 2026-05-01 09:39 | 33.57443 | 126.61386 | 2187 ft | 166 kts | 244° |
| 2026-05-01 09:39 | 33.56856 | 126.60245 | 2072 ft | 154 kts | 244° |
| 2026-05-01 09:40 | 33.56323 | 126.59210 | 1906 ft | 140 kts | 245° |
| 2026-05-01 09:40 | 33.55314 | 126.57229 | 1550 ft | 141 kts | 245° |
| 2026-05-01 09:40 | 33.54813 | 126.56247 | 1368 ft | 139 kts | 244° |
| 2026-05-01 09:41 | 33.54316 | 126.55271 | 1166 ft | 135 kts | 240° |
| 2026-05-01 09:41 | 33.53338 | 126.53369 | 817 ft | 139 kts | 241° |
| 2026-05-01 09:41 | 33.52827 | 126.52376 | 635 ft | 140 kts | 241° |
| 2026-05-01 09:42 | 33.52321 | 126.51391 | 424 ft | 137 kts | 242° |
| 2026-05-01 09:42 | 33.51822 | 126.50425 | 294 ft | 137 kts | 241° |
| 2026-05-01 09:42 | 33.50849 | 126.48506 | 91 ft | 117 kts | 237° |
| 2026-05-01 09:43 | 33.50415 | 126.47674 | 89 ft | 23 kts | 237° |
| 2026-05-01 09:43 | 33.50301 | 126.47545 | 93 ft | 21 kts | 215° |
| 2026-05-01 09:43 | 33.50232 | 126.47499 | 93 ft | 8 kts | 199° |
| 2026-05-01 09:44 | 33.50179 | 126.47584 | 94 ft | 8 kts | 69° |
| 2026-05-01 09:44 | 33.50204 | 126.47642 | 93 ft | 8 kts | 57° |
| 2026-05-01 09:44 | 33.50233 | 126.47695 | 94 ft | 8 kts | 58° |
| 2026-05-01 09:45 | 33.50260 | 126.47747 | 92 ft | 8 kts | 58° |
| 2026-05-01 09:45 | 33.50340 | 126.47903 | 91 ft | 15 kts | 58° |
| 2026-05-01 09:45 | 33.50398 | 126.48015 | 92 ft | 16 kts | 58° |
| 2026-05-01 09:46 | 33.50456 | 126.48129 | 91 ft | 16 kts | 58° |
| 2026-05-01 09:46 | 33.50511 | 126.48237 | 91 ft | 15 kts | 58° |
| 2026-05-01 09:46 | 33.50532 | 126.48279 | 93 ft | 4 kts | 58° |
| 2026-05-01 09:46 | 33.50548 | 126.48309 | 91 ft | 4 kts | 58° |
| 2026-05-01 09:47 | 33.50562 | 126.48338 | 92 ft | 4 kts | 58° |
| 2026-05-01 09:47 | 33.50583 | 126.48378 | 90 ft | 9 kts | 58° |
| 2026-05-01 09:47 | 33.50631 | 126.48471 | 90 ft | 17 kts | 58° |
| 2026-05-01 09:47 | 33.50704 | 126.48613 | 92 ft | 22 kts | 58° |
| 2026-05-01 09:48 | 33.50776 | 126.48753 | 92 ft | 16 kts | 58° |
| 2026-05-01 09:48 | 33.50769 | 126.48866 | 91 ft | 15 kts | 142° |
| 2026-05-01 09:48 | 33.50707 | 126.48955 | 92 ft | 14 kts | 83° |
| 2026-05-01 09:48 | 33.50754 | 126.49058 | 90 ft | 14 kts | 58° |
| 2026-05-01 09:49 | 33.50803 | 126.49152 | 90 ft | 13 kts | 58° |
| 2026-05-01 09:49 | 33.50832 | 126.49210 | 91 ft | 0 kts | 59° |
| 2026-05-01 09:49 | 33.50847 | 126.49241 | 91 ft | 10 kts | 59° |
| 2026-05-01 09:49 | 33.50889 | 126.49324 | 92 ft | 12 kts | 65° |
| 2026-05-01 09:50 | 33.50838 | 126.49372 | 93 ft | 10 kts | 181° |
| 2026-05-01 09:50 | 33.50799 | 126.49370 | 90 ft | 0 kts | 182° |
| 2026-05-01 09:50 | 33.50786 | 126.49370 | 91 ft | 2 kts | 181° |
| 2026-05-01 09:50 | 33.50782 | 126.49370 | 91 ft | 0 kts | 181° |